sensor_id;sensor_type;location;lat;lon;timestamp;P1;durP1;ratioP1;P2;durP2;ratioP2
20525;SDS011;10421;49.142;9.232;2022-07-23T00:00:07;9.50;;;8.37;;
20525;SDS011;10421;49.142;9.232;2022-07-23T00:02:34;9.97;;;8.20;;
20525;SDS011;10421;49.142;9.232;2022-07-23T00:05:02;9.27;;;7.47;;
20525;SDS011;10421;49.142;9.232;2022-07-23T00:07:29;9.87;;;7.90;;
20525;SDS011;10421;49.142;9.232;2022-07-23T00:09:56;8.67;;;7.77;;
20525;SDS011;10421;49.142;9.232;2022-07-23T00:12:23;8.53;;;7.63;;
20525;SDS011;10421;49.142;9.232;2022-07-23T00:14:50;8.40;;;7.60;;
20525;SDS011;10421;49.142;9.232;2022-07-23T00:17:18;10.87;;;8.17;;
20525;SDS011;10421;49.142;9.232;2022-07-23T00:19:45;9.30;;;7.27;;
20525;SDS011;10421;49.142;9.232;2022-07-23T00:22:12;9.73;;;8.03;;
20525;SDS011;10421;49.142;9.232;2022-07-23T00:24:39;8.30;;;7.50;;
20525;SDS011;10421;49.142;9.232;2022-07-23T00:27:06;9.77;;;7.40;;
20525;SDS011;10421;49.142;9.232;2022-07-23T00:29:33;8.50;;;7.60;;
20525;SDS011;10421;49.142;9.232;2022-07-23T00:31:59;11.13;;;8.43;;
20525;SDS011;10421;49.142;9.232;2022-07-23T00:34:27;8.93;;;7.80;;
20525;SDS011;10421;49.142;9.232;2022-07-23T00:36:54;9.87;;;7.50;;
20525;SDS011;10421;49.142;9.232;2022-07-23T00:39:21;10.07;;;8.73;;
20525;SDS011;10421;49.142;9.232;2022-07-23T00:41:48;9.60;;;7.73;;
20525;SDS011;10421;49.142;9.232;2022-07-23T00:44:16;8.73;;;7.50;;
20525;SDS011;10421;49.142;9.232;2022-07-23T00:46:45;8.50;;;7.40;;
20525;SDS011;10421;49.142;9.232;2022-07-23T00:49:13;8.80;;;7.30;;
20525;SDS011;10421;49.142;9.232;2022-07-23T00:51:41;10.10;;;7.80;;
20525;SDS011;10421;49.142;9.232;2022-07-23T00:54:08;8.67;;;7.60;;
20525;SDS011;10421;49.142;9.232;2022-07-23T00:56:36;9.03;;;7.60;;
20525;SDS011;10421;49.142;9.232;2022-07-23T00:59:03;9.67;;;8.10;;
20525;SDS011;10421;49.142;9.232;2022-07-23T01:01:31;9.97;;;8.00;;
20525;SDS011;10421;49.142;9.232;2022-07-23T01:03:58;8.73;;;7.10;;
20525;SDS011;10421;49.142;9.232;2022-07-23T01:06:24;9.13;;;7.77;;
20525;SDS011;10421;49.142;9.232;2022-07-23T01:08:52;8.73;;;7.83;;
20525;SDS011;10421;49.142;9.232;2022-07-23T01:11:20;8.03;;;7.23;;
20525;SDS011;10421;49.142;9.232;2022-07-23T01:13:48;9.97;;;7.90;;
20525;SDS011;10421;49.142;9.232;2022-07-23T01:16:15;8.47;;;7.57;;
20525;SDS011;10421;49.142;9.232;2022-07-23T01:18:42;8.50;;;7.60;;
20525;SDS011;10421;49.142;9.232;2022-07-23T01:21:09;9.33;;;7.50;;
20525;SDS011;10421;49.142;9.232;2022-07-23T01:23:40;9.87;;;8.03;;
20525;SDS011;10421;49.142;9.232;2022-07-23T01:26:07;9.30;;;7.27;;
20525;SDS011;10421;49.142;9.232;2022-07-23T01:28:33;9.03;;;6.80;;
20525;SDS011;10421;49.142;9.232;2022-07-23T01:31:00;10.50;;;7.50;;
20525;SDS011;10421;49.142;9.232;2022-07-23T01:33:27;8.07;;;6.77;;
20525;SDS011;10421;49.142;9.232;2022-07-23T01:35:53;8.30;;;7.47;;
20525;SDS011;10421;49.142;9.232;2022-07-23T01:38:20;8.33;;;7.43;;
20525;SDS011;10421;49.142;9.232;2022-07-23T01:40:48;7.43;;;6.53;;
20525;SDS011;10421;49.142;9.232;2022-07-23T01:43:14;7.53;;;6.50;;
20525;SDS011;10421;49.142;9.232;2022-07-23T01:45:41;9.13;;;7.17;;
20525;SDS011;10421;49.142;9.232;2022-07-23T01:48:09;7.90;;;6.70;;
20525;SDS011;10421;49.142;9.232;2022-07-23T01:50:36;7.63;;;6.83;;
20525;SDS011;10421;49.142;9.232;2022-07-23T01:53:03;8.40;;;6.47;;
20525;SDS011;10421;49.142;9.232;2022-07-23T01:55:29;8.10;;;6.43;;
20525;SDS011;10421;49.142;9.232;2022-07-23T01:57:57;8.43;;;7.37;;
20525;SDS011;10421;49.142;9.232;2022-07-23T02:00:24;8.40;;;7.20;;
20525;SDS011;10421;49.142;9.232;2022-07-23T02:02:51;10.30;;;6.90;;
20525;SDS011;10421;49.142;9.232;2022-07-23T02:05:17;7.90;;;6.47;;
20525;SDS011;10421;49.142;9.232;2022-07-23T02:07:44;7.13;;;6.40;;
20525;SDS011;10421;49.142;9.232;2022-07-23T02:10:11;7.20;;;6.40;;
20525;SDS011;10421;49.142;9.232;2022-07-23T02:12:37;7.90;;;6.60;;
20525;SDS011;10421;49.142;9.232;2022-07-23T02:15:06;10.47;;;7.67;;
20525;SDS011;10421;49.142;9.232;2022-07-23T02:17:33;9.30;;;7.40;;
20525;SDS011;10421;49.142;9.232;2022-07-23T02:20:00;7.67;;;6.87;;
20525;SDS011;10421;49.142;9.232;2022-07-23T02:22:27;8.87;;;7.00;;
20525;SDS011;10421;49.142;9.232;2022-07-23T02:24:54;9.80;;;7.77;;
20525;SDS011;10421;49.142;9.232;2022-07-23T02:27:21;8.50;;;7.60;;
20525;SDS011;10421;49.142;9.232;2022-07-23T02:29:48;9.47;;;7.60;;
20525;SDS011;10421;49.142;9.232;2022-07-23T02:32:16;9.10;;;7.67;;
20525;SDS011;10421;49.142;9.232;2022-07-23T02:34:42;11.30;;;8.30;;
20525;SDS011;10421;49.142;9.232;2022-07-23T02:37:09;9.90;;;7.43;;
20525;SDS011;10421;49.142;9.232;2022-07-23T02:39:36;9.37;;;8.20;;
20525;SDS011;10421;49.142;9.232;2022-07-23T02:42:02;8.60;;;7.70;;
20525;SDS011;10421;49.142;9.232;2022-07-23T02:44:29;13.90;;;8.63;;
20525;SDS011;10421;49.142;9.232;2022-07-23T02:46:56;8.77;;;7.90;;
20525;SDS011;10421;49.142;9.232;2022-07-23T02:49:24;11.30;;;9.03;;
20525;SDS011;10421;49.142;9.232;2022-07-23T02:51:51;11.47;;;8.27;;
20525;SDS011;10421;49.142;9.232;2022-07-23T02:54:18;8.73;;;7.40;;
20525;SDS011;10421;49.142;9.232;2022-07-23T02:56:44;10.43;;;7.87;;
20525;SDS011;10421;49.142;9.232;2022-07-23T02:59:11;11.10;;;8.60;;
20525;SDS011;10421;49.142;9.232;2022-07-23T03:01:38;11.50;;;9.50;;
20525;SDS011;10421;49.142;9.232;2022-07-23T03:04:04;10.17;;;9.07;;
20525;SDS011;10421;49.142;9.232;2022-07-23T03:06:32;11.50;;;9.00;;
20525;SDS011;10421;49.142;9.232;2022-07-23T03:08:59;11.23;;;8.87;;
20525;SDS011;10421;49.142;9.232;2022-07-23T03:11:26;15.43;;;8.27;;
20525;SDS011;10421;49.142;9.232;2022-07-23T03:13:52;11.30;;;8.13;;
20525;SDS011;10421;49.142;9.232;2022-07-23T03:16:19;10.00;;;9.00;;
20525;SDS011;10421;49.142;9.232;2022-07-23T03:18:46;11.23;;;8.93;;
20525;SDS011;10421;49.142;9.232;2022-07-23T03:21:12;11.47;;;8.90;;
20525;SDS011;10421;49.142;9.232;2022-07-23T03:23:41;11.50;;;8.43;;
20525;SDS011;10421;49.142;9.232;2022-07-23T03:26:07;11.33;;;8.47;;
20525;SDS011;10421;49.142;9.232;2022-07-23T03:28:34;11.53;;;8.70;;
20525;SDS011;10421;49.142;9.232;2022-07-23T03:31:01;10.90;;;8.70;;
20525;SDS011;10421;49.142;9.232;2022-07-23T03:33:27;11.73;;;8.83;;
20525;SDS011;10421;49.142;9.232;2022-07-23T03:35:54;12.47;;;8.80;;
20525;SDS011;10421;49.142;9.232;2022-07-23T03:38:21;11.60;;;9.50;;
20525;SDS011;10421;49.142;9.232;2022-07-23T03:40:49;14.20;;;8.90;;
20525;SDS011;10421;49.142;9.232;2022-07-23T03:43:15;13.87;;;8.67;;
20525;SDS011;10421;49.142;9.232;2022-07-23T03:45:42;11.47;;;9.13;;
20525;SDS011;10421;49.142;9.232;2022-07-23T03:48:09;9.93;;;8.83;;
20525;SDS011;10421;49.142;9.232;2022-07-23T03:50:35;9.77;;;8.60;;
20525;SDS011;10421;49.142;9.232;2022-07-23T03:53:03;12.10;;;9.80;;
20525;SDS011;10421;49.142;9.232;2022-07-23T03:55:29;11.97;;;9.03;;
20525;SDS011;10421;49.142;9.232;2022-07-23T03:57:57;11.90;;;9.63;;
20525;SDS011;10421;49.142;9.232;2022-07-23T04:00:24;10.47;;;9.13;;
20525;SDS011;10421;49.142;9.232;2022-07-23T04:02:51;11.73;;;8.90;;
20525;SDS011;10421;49.142;9.232;2022-07-23T04:05:18;11.90;;;8.87;;
20525;SDS011;10421;49.142;9.232;2022-07-23T04:07:44;12.27;;;8.80;;
20525;SDS011;10421;49.142;9.232;2022-07-23T04:10:11;11.17;;;8.83;;
20525;SDS011;10421;49.142;9.232;2022-07-23T04:12:38;12.40;;;9.00;;
20525;SDS011;10421;49.142;9.232;2022-07-23T04:15:07;12.40;;;8.60;;
20525;SDS011;10421;49.142;9.232;2022-07-23T04:17:34;12.00;;;9.03;;
20525;SDS011;10421;49.142;9.232;2022-07-23T04:20:01;14.07;;;10.00;;
20525;SDS011;10421;49.142;9.232;2022-07-23T04:22:28;12.10;;;8.50;;
20525;SDS011;10421;49.142;9.232;2022-07-23T04:24:55;11.23;;;8.93;;
20525;SDS011;10421;49.142;9.232;2022-07-23T04:27:25;12.90;;;9.30;;
20525;SDS011;10421;49.142;9.232;2022-07-23T04:29:53;12.10;;;9.10;;
20525;SDS011;10421;49.142;9.232;2022-07-23T04:32:21;11.67;;;9.30;;
20525;SDS011;10421;49.142;9.232;2022-07-23T04:34:48;13.13;;;9.37;;
20525;SDS011;10421;49.142;9.232;2022-07-23T04:37:15;13.80;;;9.20;;
20525;SDS011;10421;49.142;9.232;2022-07-23T04:39:41;15.33;;;9.70;;
20525;SDS011;10421;49.142;9.232;2022-07-23T04:42:09;13.47;;;8.80;;
20525;SDS011;10421;49.142;9.232;2022-07-23T04:44:36;12.33;;;8.43;;
20525;SDS011;10421;49.142;9.232;2022-07-23T04:47:03;9.43;;;8.23;;
20525;SDS011;10421;49.142;9.232;2022-07-23T04:49:31;14.37;;;9.20;;
20525;SDS011;10421;49.142;9.232;2022-07-23T04:51:57;11.33;;;8.50;;
20525;SDS011;10421;49.142;9.232;2022-07-23T04:54:24;12.10;;;8.80;;
20525;SDS011;10421;49.142;9.232;2022-07-23T04:56:51;12.60;;;9.17;;
20525;SDS011;10421;49.142;9.232;2022-07-23T04:59:18;12.10;;;9.50;;
20525;SDS011;10421;49.142;9.232;2022-07-23T05:01:44;12.50;;;8.70;;
20525;SDS011;10421;49.142;9.232;2022-07-23T05:04:11;9.97;;;7.80;;
20525;SDS011;10421;49.142;9.232;2022-07-23T05:06:39;13.73;;;8.67;;
20525;SDS011;10421;49.142;9.232;2022-07-23T05:09:06;10.50;;;8.97;;
20525;SDS011;10421;49.142;9.232;2022-07-23T05:11:32;12.50;;;8.50;;
20525;SDS011;10421;49.142;9.232;2022-07-23T05:13:59;12.50;;;8.47;;
20525;SDS011;10421;49.142;9.232;2022-07-23T05:16:26;12.43;;;9.13;;
20525;SDS011;10421;49.142;9.232;2022-07-23T05:18:52;14.97;;;8.37;;
20525;SDS011;10421;49.142;9.232;2022-07-23T05:21:19;10.20;;;8.50;;
20525;SDS011;10421;49.142;9.232;2022-07-23T05:23:47;13.50;;;9.10;;
20525;SDS011;10421;49.142;9.232;2022-07-23T05:26:14;12.67;;;8.20;;
20525;SDS011;10421;49.142;9.232;2022-07-23T05:28:41;10.03;;;8.57;;
20525;SDS011;10421;49.142;9.232;2022-07-23T05:31:07;12.97;;;9.03;;
20525;SDS011;10421;49.142;9.232;2022-07-23T05:33:34;10.10;;;8.17;;
20525;SDS011;10421;49.142;9.232;2022-07-23T05:36:01;12.77;;;8.60;;
20525;SDS011;10421;49.142;9.232;2022-07-23T05:38:28;15.40;;;8.80;;
20525;SDS011;10421;49.142;9.232;2022-07-23T05:40:57;10.70;;;8.00;;
20525;SDS011;10421;49.142;9.232;2022-07-23T05:43:23;11.97;;;7.87;;
20525;SDS011;10421;49.142;9.232;2022-07-23T05:45:50;8.90;;;7.50;;
20525;SDS011;10421;49.142;9.232;2022-07-23T05:48:17;9.87;;;7.90;;
20525;SDS011;10421;49.142;9.232;2022-07-23T05:50:44;12.83;;;9.70;;
20525;SDS011;10421;49.142;9.232;2022-07-23T05:53:10;11.37;;;9.10;;
20525;SDS011;10421;49.142;9.232;2022-07-23T05:55:37;12.00;;;8.67;;
20525;SDS011;10421;49.142;9.232;2022-07-23T05:58:05;11.83;;;7.60;;
20525;SDS011;10421;49.142;9.232;2022-07-23T06:00:32;15.17;;;8.50;;
20525;SDS011;10421;49.142;9.232;2022-07-23T06:02:59;10.30;;;8.43;;
20525;SDS011;10421;49.142;9.232;2022-07-23T06:05:26;10.50;;;8.40;;
20525;SDS011;10421;49.142;9.232;2022-07-23T06:07:53;9.37;;;7.50;;
20525;SDS011;10421;49.142;9.232;2022-07-23T06:10:20;14.47;;;10.40;;
20525;SDS011;10421;49.142;9.232;2022-07-23T06:12:46;20.70;;;13.80;;
20525;SDS011;10421;49.142;9.232;2022-07-23T06:15:14;9.00;;;8.00;;
20525;SDS011;10421;49.142;9.232;2022-07-23T06:17:41;12.07;;;8.17;;
20525;SDS011;10421;49.142;9.232;2022-07-23T06:20:08;11.13;;;8.47;;
20525;SDS011;10421;49.142;9.232;2022-07-23T06:22:36;11.40;;;8.13;;
20525;SDS011;10421;49.142;9.232;2022-07-23T06:25:03;21.67;;;16.00;;
20525;SDS011;10421;49.142;9.232;2022-07-23T06:27:30;20.70;;;15.00;;
20525;SDS011;10421;49.142;9.232;2022-07-23T06:29:57;16.13;;;11.97;;
20525;SDS011;10421;49.142;9.232;2022-07-23T06:32:25;16.97;;;11.53;;
20525;SDS011;10421;49.142;9.232;2022-07-23T06:34:51;16.67;;;12.90;;
20525;SDS011;10421;49.142;9.232;2022-07-23T06:37:18;24.17;;;17.40;;
20525;SDS011;10421;49.142;9.232;2022-07-23T06:39:45;19.00;;;13.40;;
20525;SDS011;10421;49.142;9.232;2022-07-23T06:42:11;16.43;;;10.47;;
20525;SDS011;10421;49.142;9.232;2022-07-23T06:44:40;13.70;;;10.30;;
20525;SDS011;10421;49.142;9.232;2022-07-23T06:47:08;12.37;;;9.17;;
20525;SDS011;10421;49.142;9.232;2022-07-23T06:49:36;18.20;;;10.10;;
20525;SDS011;10421;49.142;9.232;2022-07-23T06:52:02;15.70;;;10.03;;
20525;SDS011;10421;49.142;9.232;2022-07-23T06:54:29;12.57;;;8.20;;
20525;SDS011;10421;49.142;9.232;2022-07-23T06:56:56;11.97;;;8.80;;
20525;SDS011;10421;49.142;9.232;2022-07-23T06:59:22;12.17;;;9.10;;
20525;SDS011;10421;49.142;9.232;2022-07-23T07:01:49;12.00;;;8.40;;
20525;SDS011;10421;49.142;9.232;2022-07-23T07:04:16;12.27;;;8.90;;
20525;SDS011;10421;49.142;9.232;2022-07-23T07:06:44;12.03;;;8.70;;
20525;SDS011;10421;49.142;9.232;2022-07-23T07:09:10;14.17;;;9.70;;
20525;SDS011;10421;49.142;9.232;2022-07-23T07:11:37;19.37;;;10.40;;
20525;SDS011;10421;49.142;9.232;2022-07-23T07:14:04;16.33;;;10.80;;
20525;SDS011;10421;49.142;9.232;2022-07-23T07:16:31;14.60;;;9.80;;
20525;SDS011;10421;49.142;9.232;2022-07-23T07:18:58;18.17;;;10.57;;
20525;SDS011;10421;49.142;9.232;2022-07-23T07:21:25;15.27;;;10.17;;
20525;SDS011;10421;49.142;9.232;2022-07-23T07:23:53;17.90;;;10.33;;
20525;SDS011;10421;49.142;9.232;2022-07-23T07:26:19;15.60;;;9.37;;
20525;SDS011;10421;49.142;9.232;2022-07-23T07:28:46;15.00;;;9.70;;
20525;SDS011;10421;49.142;9.232;2022-07-23T07:31:13;12.00;;;9.30;;
20525;SDS011;10421;49.142;9.232;2022-07-23T07:33:40;13.30;;;9.83;;
20525;SDS011;10421;49.142;9.232;2022-07-23T07:36:06;12.37;;;8.50;;
20525;SDS011;10421;49.142;9.232;2022-07-23T07:38:33;14.33;;;9.30;;
20525;SDS011;10421;49.142;9.232;2022-07-23T07:41:01;12.80;;;8.47;;
20525;SDS011;10421;49.142;9.232;2022-07-23T07:43:28;10.90;;;8.37;;
20525;SDS011;10421;49.142;9.232;2022-07-23T07:45:55;10.57;;;7.67;;
20525;SDS011;10421;49.142;9.232;2022-07-23T07:48:22;13.03;;;8.27;;
20525;SDS011;10421;49.142;9.232;2022-07-23T07:50:49;13.63;;;8.40;;
20525;SDS011;10421;49.142;9.232;2022-07-23T07:53:15;12.43;;;8.60;;
20525;SDS011;10421;49.142;9.232;2022-07-23T07:55:42;12.00;;;8.30;;
20525;SDS011;10421;49.142;9.232;2022-07-23T07:58:10;9.30;;;7.60;;
20525;SDS011;10421;49.142;9.232;2022-07-23T08:00:37;11.70;;;8.00;;
20525;SDS011;10421;49.142;9.232;2022-07-23T08:03:05;12.90;;;9.03;;
20525;SDS011;10421;49.142;9.232;2022-07-23T08:05:31;10.07;;;8.20;;
20525;SDS011;10421;49.142;9.232;2022-07-23T08:07:59;12.77;;;8.53;;
20525;SDS011;10421;49.142;9.232;2022-07-23T08:10:26;10.90;;;8.20;;
20525;SDS011;10421;49.142;9.232;2022-07-23T08:12:54;10.80;;;9.10;;
20525;SDS011;10421;49.142;9.232;2022-07-23T08:15:24;12.67;;;10.00;;
20525;SDS011;10421;49.142;9.232;2022-07-23T08:17:52;12.20;;;8.73;;
20525;SDS011;10421;49.142;9.232;2022-07-23T08:20:20;11.63;;;8.47;;
20525;SDS011;10421;49.142;9.232;2022-07-23T08:23:07;14.20;;;9.67;;
20525;SDS011;10421;49.142;9.232;2022-07-23T08:25:35;10.87;;;7.93;;
20525;SDS011;10421;49.142;9.232;2022-07-23T08:28:04;12.60;;;8.53;;
20525;SDS011;10421;49.142;9.232;2022-07-23T08:30:34;11.77;;;8.50;;
20525;SDS011;10421;49.142;9.232;2022-07-23T08:33:02;13.30;;;9.10;;
20525;SDS011;10421;49.142;9.232;2022-07-23T08:35:32;12.50;;;8.43;;
20525;SDS011;10421;49.142;9.232;2022-07-23T08:38:01;10.17;;;8.50;;
20525;SDS011;10421;49.142;9.232;2022-07-23T08:40:30;10.83;;;8.53;;
20525;SDS011;10421;49.142;9.232;2022-07-23T08:42:58;12.13;;;8.90;;
20525;SDS011;10421;49.142;9.232;2022-07-23T08:45:26;12.67;;;8.73;;
20525;SDS011;10421;49.142;9.232;2022-07-23T08:47:55;12.70;;;9.47;;
20525;SDS011;10421;49.142;9.232;2022-07-23T08:50:24;13.30;;;8.50;;
20525;SDS011;10421;49.142;9.232;2022-07-23T08:52:51;14.10;;;9.30;;
20525;SDS011;10421;49.142;9.232;2022-07-23T08:55:19;10.63;;;8.87;;
20525;SDS011;10421;49.142;9.232;2022-07-23T08:57:48;15.60;;;9.63;;
20525;SDS011;10421;49.142;9.232;2022-07-23T09:00:16;15.80;;;10.43;;
20525;SDS011;10421;49.142;9.232;2022-07-23T09:02:44;14.47;;;10.00;;
20525;SDS011;10421;49.142;9.232;2022-07-23T09:05:13;15.57;;;11.57;;
20525;SDS011;10421;49.142;9.232;2022-07-23T09:10:42;14.27;;;10.63;;
20525;SDS011;10421;49.142;9.232;2022-07-23T09:13:22;18.97;;;13.10;;
20525;SDS011;10421;49.142;9.232;2022-07-23T09:15:54;15.70;;;11.00;;
20525;SDS011;10421;49.142;9.232;2022-07-23T09:18:30;13.00;;;10.10;;
20525;SDS011;10421;49.142;9.232;2022-07-23T09:21:09;16.50;;;12.43;;
20525;SDS011;10421;49.142;9.232;2022-07-23T09:23:41;16.70;;;11.50;;
20525;SDS011;10421;49.142;9.232;2022-07-23T09:26:20;12.17;;;9.63;;
20525;SDS011;10421;49.142;9.232;2022-07-23T09:28:49;14.97;;;10.00;;
20525;SDS011;10421;49.142;9.232;2022-07-23T09:31:18;14.23;;;9.80;;
20525;SDS011;10421;49.142;9.232;2022-07-23T09:33:46;14.43;;;10.30;;
20525;SDS011;10421;49.142;9.232;2022-07-23T09:36:14;13.97;;;9.93;;
20525;SDS011;10421;49.142;9.232;2022-07-23T09:38:47;12.83;;;9.60;;
20525;SDS011;10421;49.142;9.232;2022-07-23T09:41:14;12.53;;;9.17;;
20525;SDS011;10421;49.142;9.232;2022-07-23T09:43:41;12.70;;;9.23;;
20525;SDS011;10421;49.142;9.232;2022-07-23T09:46:18;12.90;;;8.80;;
20525;SDS011;10421;49.142;9.232;2022-07-23T09:48:47;11.93;;;9.10;;
20525;SDS011;10421;49.142;9.232;2022-07-23T09:51:16;10.33;;;8.33;;
20525;SDS011;10421;49.142;9.232;2022-07-23T09:53:44;11.23;;;8.63;;
20525;SDS011;10421;49.142;9.232;2022-07-23T09:56:10;12.37;;;8.63;;
20525;SDS011;10421;49.142;9.232;2022-07-23T09:58:39;12.37;;;9.57;;
20525;SDS011;10421;49.142;9.232;2022-07-23T10:01:12;13.90;;;10.07;;
20525;SDS011;10421;49.142;9.232;2022-07-23T10:03:39;9.93;;;8.20;;
20525;SDS011;10421;49.142;9.232;2022-07-23T10:06:07;12.37;;;8.77;;
20525;SDS011;10421;49.142;9.232;2022-07-23T10:08:36;11.33;;;8.80;;
20525;SDS011;10421;49.142;9.232;2022-07-23T10:11:07;12.90;;;7.90;;
20525;SDS011;10421;49.142;9.232;2022-07-23T10:13:35;12.00;;;9.20;;
20525;SDS011;10421;49.142;9.232;2022-07-23T10:16:25;11.00;;;7.97;;
20525;SDS011;10421;49.142;9.232;2022-07-23T10:18:52;9.50;;;8.00;;
20525;SDS011;10421;49.142;9.232;2022-07-23T10:21:21;8.23;;;7.40;;
20525;SDS011;10421;49.142;9.232;2022-07-23T10:24:01;8.03;;;7.20;;
20525;SDS011;10421;49.142;9.232;2022-07-23T10:26:49;8.37;;;7.10;;
20525;SDS011;10421;49.142;9.232;2022-07-23T10:29:24;10.33;;;8.07;;
20525;SDS011;10421;49.142;9.232;2022-07-23T10:32:04;8.30;;;7.40;;
20525;SDS011;10421;49.142;9.232;2022-07-23T10:34:44;10.40;;;7.47;;
20525;SDS011;10421;49.142;9.232;2022-07-23T10:37:21;8.47;;;7.43;;
20525;SDS011;10421;49.142;9.232;2022-07-23T10:42:37;9.10;;;7.40;;
20525;SDS011;10421;49.142;9.232;2022-07-23T10:47:51;9.87;;;8.17;;
20525;SDS011;10421;49.142;9.232;2022-07-23T10:50:22;12.53;;;11.23;;
20525;SDS011;10421;49.142;9.232;2022-07-23T10:55:44;9.63;;;7.70;;
20525;SDS011;10421;49.142;9.232;2022-07-23T10:58:17;10.00;;;7.90;;
20525;SDS011;10421;49.142;9.232;2022-07-23T11:00:48;10.20;;;8.50;;
20525;SDS011;10421;49.142;9.232;2022-07-23T11:03:28;9.00;;;8.00;;
20525;SDS011;10421;49.142;9.232;2022-07-23T11:06:02;8.33;;;7.53;;
20525;SDS011;10421;49.142;9.232;2022-07-23T11:08:29;8.67;;;7.60;;
20525;SDS011;10421;49.142;9.232;2022-07-23T11:11:08;11.20;;;9.57;;
20525;SDS011;10421;49.142;9.232;2022-07-23T11:13:37;10.00;;;8.50;;
20525;SDS011;10421;49.142;9.232;2022-07-23T11:16:12;9.77;;;7.80;;
20525;SDS011;10421;49.142;9.232;2022-07-23T11:19:05;10.33;;;8.10;;
20525;SDS011;10421;49.142;9.232;2022-07-23T11:24:24;8.80;;;7.50;;
20525;SDS011;10421;49.142;9.232;2022-07-23T11:26:56;8.77;;;7.73;;
20525;SDS011;10421;49.142;9.232;2022-07-23T11:29:41;9.17;;;7.83;;
20525;SDS011;10421;49.142;9.232;2022-07-23T11:32:19;9.87;;;8.00;;
20525;SDS011;10421;49.142;9.232;2022-07-23T11:34:50;10.97;;;8.20;;
20525;SDS011;10421;49.142;9.232;2022-07-23T11:37:34;10.73;;;8.57;;
20525;SDS011;10421;49.142;9.232;2022-07-23T11:40:03;8.50;;;7.60;;
20525;SDS011;10421;49.142;9.232;2022-07-23T11:42:34;10.50;;;8.53;;
20525;SDS011;10421;49.142;9.232;2022-07-23T11:45:05;13.23;;;8.97;;
20525;SDS011;10421;49.142;9.232;2022-07-23T11:47:34;10.27;;;8.30;;
20525;SDS011;10421;49.142;9.232;2022-07-23T11:50:02;11.10;;;8.47;;
20525;SDS011;10421;49.142;9.232;2022-07-23T11:52:31;10.90;;;8.60;;
20525;SDS011;10421;49.142;9.232;2022-07-23T11:55:00;9.03;;;8.13;;
20525;SDS011;10421;49.142;9.232;2022-07-23T11:57:28;8.27;;;7.40;;
20525;SDS011;10421;49.142;9.232;2022-07-23T12:00:04;10.80;;;7.57;;
20525;SDS011;10421;49.142;9.232;2022-07-23T12:02:33;8.00;;;6.70;;
20525;SDS011;10421;49.142;9.232;2022-07-23T12:05:00;7.60;;;6.30;;
20525;SDS011;10421;49.142;9.232;2022-07-23T12:07:28;8.23;;;6.87;;
20525;SDS011;10421;49.142;9.232;2022-07-23T12:09:57;9.97;;;7.70;;
20525;SDS011;10421;49.142;9.232;2022-07-23T12:12:26;7.07;;;6.47;;
20525;SDS011;10421;49.142;9.232;2022-07-23T12:14:54;7.57;;;6.87;;
20525;SDS011;10421;49.142;9.232;2022-07-23T12:17:28;8.43;;;7.40;;
20525;SDS011;10421;49.142;9.232;2022-07-23T12:19:57;8.23;;;7.30;;
20525;SDS011;10421;49.142;9.232;2022-07-23T12:22:26;8.10;;;7.00;;
20525;SDS011;10421;49.142;9.232;2022-07-23T12:25:03;8.07;;;7.23;;
20525;SDS011;10421;49.142;9.232;2022-07-23T12:27:31;7.30;;;6.60;;
20525;SDS011;10421;49.142;9.232;2022-07-23T12:29:58;7.77;;;6.87;;
20525;SDS011;10421;49.142;9.232;2022-07-23T12:32:25;9.13;;;7.60;;
20525;SDS011;10421;49.142;9.232;2022-07-23T12:35:04;8.63;;;7.60;;
20525;SDS011;10421;49.142;9.232;2022-07-23T12:37:32;9.07;;;7.87;;
20525;SDS011;10421;49.142;9.232;2022-07-23T12:42:47;8.83;;;7.40;;
20525;SDS011;10421;49.142;9.232;2022-07-23T12:45:14;6.80;;;6.13;;
20525;SDS011;10421;49.142;9.232;2022-07-23T12:47:59;9.73;;;8.57;;
20525;SDS011;10421;49.142;9.232;2022-07-23T12:50:32;10.43;;;8.20;;
20525;SDS011;10421;49.142;9.232;2022-07-23T12:53:04;8.80;;;8.00;;
20525;SDS011;10421;49.142;9.232;2022-07-23T12:55:32;10.33;;;7.63;;
20525;SDS011;10421;49.142;9.232;2022-07-23T12:58:03;9.07;;;7.60;;
20525;SDS011;10421;49.142;9.232;2022-07-23T13:00:31;11.27;;;7.43;;
20525;SDS011;10421;49.142;9.232;2022-07-23T13:03:00;8.27;;;7.40;;
20525;SDS011;10421;49.142;9.232;2022-07-23T13:05:26;8.00;;;7.20;;
20525;SDS011;10421;49.142;9.232;2022-07-23T13:07:53;7.90;;;7.20;;
20525;SDS011;10421;49.142;9.232;2022-07-23T13:10:20;8.80;;;6.97;;
20525;SDS011;10421;49.142;9.232;2022-07-23T13:12:46;9.40;;;7.20;;
20525;SDS011;10421;49.142;9.232;2022-07-23T13:15:13;8.37;;;7.47;;
20525;SDS011;10421;49.142;9.232;2022-07-23T13:17:40;8.60;;;7.27;;
20525;SDS011;10421;49.142;9.232;2022-07-23T13:20:11;9.20;;;8.30;;
20525;SDS011;10421;49.142;9.232;2022-07-23T13:22:38;7.80;;;7.10;;
20525;SDS011;10421;49.142;9.232;2022-07-23T13:25:05;7.67;;;6.97;;
20525;SDS011;10421;49.142;9.232;2022-07-23T13:27:32;9.40;;;7.50;;
20525;SDS011;10421;49.142;9.232;2022-07-23T13:29:59;10.33;;;7.93;;
20525;SDS011;10421;49.142;9.232;2022-07-23T13:32:26;13.07;;;7.97;;
20525;SDS011;10421;49.142;9.232;2022-07-23T13:34:52;9.20;;;8.20;;
20525;SDS011;10421;49.142;9.232;2022-07-23T13:37:20;8.87;;;7.63;;
20525;SDS011;10421;49.142;9.232;2022-07-23T13:39:47;8.40;;;7.50;;
20525;SDS011;10421;49.142;9.232;2022-07-23T13:42:14;8.40;;;7.60;;
20525;SDS011;10421;49.142;9.232;2022-07-23T13:44:41;8.30;;;7.30;;
20525;SDS011;10421;49.142;9.232;2022-07-23T13:47:09;8.53;;;7.13;;
20525;SDS011;10421;49.142;9.232;2022-07-23T13:49:36;8.40;;;7.60;;
20525;SDS011;10421;49.142;9.232;2022-07-23T13:52:03;8.33;;;7.50;;
20525;SDS011;10421;49.142;9.232;2022-07-23T13:54:31;8.07;;;7.33;;
20525;SDS011;10421;49.142;9.232;2022-07-23T13:56:58;9.53;;;8.43;;
20525;SDS011;10421;49.142;9.232;2022-07-23T13:59:25;12.33;;;10.43;;
20525;SDS011;10421;49.142;9.232;2022-07-23T14:01:51;19.17;;;16.10;;
20525;SDS011;10421;49.142;9.232;2022-07-23T14:04:18;18.30;;;14.60;;
20525;SDS011;10421;49.142;9.232;2022-07-23T14:06:45;9.37;;;7.90;;
20525;SDS011;10421;49.142;9.232;2022-07-23T14:09:12;8.40;;;7.60;;
20525;SDS011;10421;49.142;9.232;2022-07-23T14:11:40;9.90;;;7.63;;
20525;SDS011;10421;49.142;9.232;2022-07-23T14:14:06;9.33;;;8.07;;
20525;SDS011;10421;49.142;9.232;2022-07-23T14:16:33;9.03;;;8.23;;
20525;SDS011;10421;49.142;9.232;2022-07-23T14:19:00;9.60;;;7.37;;
20525;SDS011;10421;49.142;9.232;2022-07-23T14:21:27;12.50;;;7.90;;
20525;SDS011;10421;49.142;9.232;2022-07-23T14:23:54;9.53;;;7.90;;
20525;SDS011;10421;49.142;9.232;2022-07-23T14:26:20;8.77;;;7.73;;
20525;SDS011;10421;49.142;9.232;2022-07-23T14:28:48;10.30;;;8.20;;
20525;SDS011;10421;49.142;9.232;2022-07-23T14:31:15;9.20;;;7.77;;
20525;SDS011;10421;49.142;9.232;2022-07-23T14:33:44;8.63;;;7.83;;
20525;SDS011;10421;49.142;9.232;2022-07-23T14:36:11;13.47;;;8.07;;
20525;SDS011;10421;49.142;9.232;2022-07-23T14:38:38;9.73;;;8.33;;
20525;SDS011;10421;49.142;9.232;2022-07-23T14:41:05;9.67;;;8.77;;
20525;SDS011;10421;49.142;9.232;2022-07-23T14:43:32;10.20;;;8.60;;
20525;SDS011;10421;49.142;9.232;2022-07-23T14:46:01;11.97;;;9.10;;
20525;SDS011;10421;49.142;9.232;2022-07-23T14:48:27;10.13;;;8.77;;
20525;SDS011;10421;49.142;9.232;2022-07-23T14:50:54;8.90;;;7.97;;
20525;SDS011;10421;49.142;9.232;2022-07-23T14:53:21;11.63;;;8.63;;
20525;SDS011;10421;49.142;9.232;2022-07-23T14:55:47;9.40;;;8.33;;
20525;SDS011;10421;49.142;9.232;2022-07-23T14:58:14;11.73;;;9.63;;
20525;SDS011;10421;49.142;9.232;2022-07-23T15:00:41;10.73;;;8.90;;